createdAt,value
2018-04-12T00:01:13.083Z,14.30
2018-04-12T00:03:40.663Z,14.30
2018-04-12T00:06:08.165Z,14.30
2018-04-12T00:08:35.680Z,14.30
2018-04-12T00:11:03.210Z,14.20
2018-04-12T00:13:31.482Z,14.10
2018-04-12T00:15:59.764Z,14.10
2018-04-12T00:18:27.324Z,14.00
2018-04-12T00:20:54.881Z,14.00
2018-04-12T00:23:22.402Z,14.00
2018-04-12T00:25:49.939Z,13.90
2018-04-12T00:28:17.420Z,13.90
2018-04-12T00:30:44.919Z,13.90
2018-04-12T00:33:12.402Z,13.90
2018-04-12T00:35:39.933Z,14.00
2018-04-12T00:38:07.485Z,14.00
2018-04-12T00:40:35.030Z,14.00
2018-04-12T00:43:03.402Z,13.80
2018-04-12T00:45:31.671Z,13.80
2018-04-12T00:47:59.930Z,13.70
2018-04-12T00:50:27.520Z,13.60
2018-04-12T00:52:55.069Z,13.70
2018-04-12T00:55:23.332Z,13.70
2018-04-12T00:57:51.608Z,13.60
2018-04-12T01:00:19.867Z,13.70
2018-04-12T01:02:47.427Z,13.60
2018-04-12T01:05:15.022Z,13.90
2018-04-12T01:07:42.597Z,13.90
2018-04-12T01:10:10.104Z,13.70
2018-04-12T02:01:07.672Z,13.40
2018-04-12T02:03:35.944Z,13.30
2018-04-12T02:06:04.207Z,13.40
2018-04-12T02:08:31.716Z,13.30
2018-04-12T02:10:59.196Z,13.50
2018-04-12T02:13:26.688Z,13.40
2018-04-12T02:15:54.962Z,13.20
2018-04-12T02:18:23.245Z,13.10
2018-04-12T02:20:51.532Z,13.10
2018-04-12T02:23:19.014Z,13.10
2018-04-12T02:25:46.540Z,13.10
2018-04-12T02:28:14.096Z,13.00
2018-04-12T02:30:41.607Z,13.00
2018-04-12T02:33:09.153Z,13.00
2018-04-12T02:35:36.630Z,13.00
2018-04-12T02:38:04.111Z,12.90
2018-04-12T02:40:32.374Z,12.80
2018-04-12T02:42:59.856Z,12.70
2018-04-12T02:45:27.380Z,12.70
2018-04-12T02:47:54.863Z,12.70
2018-04-12T02:50:23.110Z,12.70
2018-04-12T02:52:50.701Z,12.70
2018-04-12T02:55:18.189Z,12.70
2018-04-12T02:57:45.720Z,12.60
2018-04-12T03:00:13.206Z,12.60
2018-04-12T03:02:40.720Z,12.60
2018-04-12T03:05:08.984Z,12.70
2018-04-12T03:07:37.271Z,12.60
2018-04-12T03:10:05.526Z,12.50
2018-04-12T03:12:33.085Z,12.40
2018-04-12T03:15:00.588Z,12.60
2018-04-12T03:17:28.142Z,12.50
2018-04-12T03:19:55.680Z,12.40
2018-04-12T03:22:23.946Z,12.40
2018-04-12T03:24:52.195Z,12.40
2018-04-12T03:27:19.682Z,12.40
2018-04-12T03:29:47.955Z,12.30
2018-04-12T03:32:15.514Z,12.30
2018-04-12T03:34:43.019Z,12.30
2018-04-12T03:37:10.543Z,12.40
2018-04-12T03:39:38.026Z,12.40
2018-04-12T03:42:05.517Z,12.40
2018-04-12T03:44:33.034Z,12.30
2018-04-12T03:47:00.553Z,12.30
2018-04-12T03:49:28.846Z,12.30
2018-04-12T03:51:56.337Z,12.20
2018-04-12T03:54:23.844Z,12.40
2018-04-12T03:56:51.355Z,12.30
2018-04-12T03:59:18.846Z,12.30
2018-04-12T04:01:47.176Z,12.60
2018-04-12T04:04:14.650Z,12.60
2018-04-12T04:06:42.176Z,12.70
2018-04-12T04:09:09.709Z,12.70
2018-04-12T04:11:37.200Z,12.80
2018-04-12T04:14:04.828Z,12.70
2018-04-12T04:16:44.239Z,12.70
2018-04-12T04:19:24.610Z,12.70
2018-04-12T04:21:52.864Z,12.80
2018-04-12T04:24:20.454Z,12.70
2018-04-12T04:26:47.971Z,12.80
2018-04-12T04:29:15.456Z,12.80
2018-04-12T04:31:43.734Z,13.00
2018-04-12T04:34:12.016Z,13.00
2018-04-12T04:36:39.555Z,13.00
2018-04-12T04:39:07.807Z,13.00
2018-04-12T04:41:35.323Z,12.90
2018-04-12T04:44:02.818Z,12.80
2018-04-12T04:46:30.324Z,12.70
2018-04-12T04:48:57.822Z,12.60
2018-04-12T04:51:25.326Z,12.60
2018-04-12T04:53:52.879Z,12.50
2018-04-12T04:56:21.152Z,12.30
2018-04-12T04:58:49.407Z,12.40
2018-04-12T05:01:17.008Z,12.30
2018-04-12T05:03:44.489Z,12.40
2018-04-12T05:06:11.970Z,12.20
2018-04-12T05:08:39.462Z,12.10
2018-04-12T05:11:06.945Z,12.10
2018-04-12T05:13:34.467Z,11.90
2018-04-12T05:16:02.847Z,12.50
2018-04-12T05:18:30.332Z,12.50
2018-04-12T05:20:57.851Z,12.90
2018-04-12T05:23:26.127Z,13.20
2018-04-12T05:25:54.376Z,13.50
2018-04-12T05:28:21.986Z,13.50
2018-04-12T05:30:49.479Z,13.40
2018-04-12T05:33:17.042Z,13.30
2018-04-12T05:35:44.545Z,13.50
2018-04-12T05:38:12.099Z,13.60
2018-04-12T05:40:39.583Z,13.50
2018-04-12T05:43:07.114Z,13.50
2018-04-12T05:45:34.672Z,13.60
2018-04-12T05:48:02.166Z,13.80
2018-04-12T05:50:29.784Z,13.90
2018-04-12T05:52:57.280Z,14.40
2018-04-12T05:55:24.762Z,14.60
2018-04-12T05:57:52.356Z,15.00
2018-04-12T06:00:19.846Z,15.10
2018-04-12T06:02:47.349Z,15.60
2018-04-12T06:05:15.594Z,16.20
2018-04-12T06:07:43.080Z,16.10
2018-04-12T06:10:11.386Z,17.50
2018-04-12T06:12:38.952Z,17.50
2018-04-12T06:15:07.162Z,17.90
2018-04-12T06:17:34.648Z,17.90
2018-04-12T06:20:02.923Z,18.90
2018-04-12T06:22:31.206Z,19.20
2018-04-12T06:24:59.480Z,19.20
2018-04-12T06:27:27.737Z,19.60
2018-04-12T06:29:55.312Z,19.50
2018-04-12T06:32:23.560Z,20.00
2018-04-12T06:34:51.058Z,19.90
2018-04-12T06:37:18.604Z,19.80
2018-04-12T06:39:46.112Z,20.30
2018-04-12T06:42:13.721Z,20.40
2018-04-12T06:44:41.301Z,21.40
2018-04-12T06:47:08.788Z,21.80
2018-04-12T06:49:36.287Z,22.00
2018-04-12T06:52:04.567Z,22.50
2018-04-12T06:54:32.126Z,22.50
2018-04-12T06:56:59.631Z,22.10
2018-04-12T06:59:27.236Z,22.50
2018-04-12T07:01:54.799Z,22.50
2018-04-12T07:04:22.286Z,21.80
2018-04-12T07:06:49.795Z,21.90
2018-04-12T07:09:18.049Z,22.50
2018-04-12T07:11:45.541Z,22.40
2018-04-12T07:14:13.036Z,22.90
2018-04-12T07:16:40.519Z,22.40
2018-04-12T07:19:08.106Z,22.70
2018-04-12T07:21:36.464Z,22.60
2018-04-12T07:24:04.731Z,23.00
2018-04-12T07:26:32.233Z,22.90
2018-04-12T07:28:59.783Z,24.00
2018-04-12T07:31:27.319Z,25.10
2018-04-12T07:33:55.604Z,24.30
2018-04-12T07:36:23.096Z,24.30
2018-04-12T07:38:50.619Z,25.10
2018-04-12T07:41:18.136Z,25.90
2018-04-12T07:43:46.427Z,24.50
2018-04-12T07:46:14.015Z,24.40
2018-04-12T07:48:41.504Z,23.20
2018-04-12T07:51:09.122Z,22.60
2018-04-12T07:53:37.380Z,22.90
2018-04-12T07:56:05.662Z,23.40
2018-04-12T07:58:33.931Z,23.80
2018-04-12T08:01:02.243Z,24.00
2018-04-12T08:03:29.801Z,23.90
2018-04-12T08:05:57.298Z,23.50
2018-04-12T08:08:24.896Z,23.90
2018-04-12T08:10:52.455Z,23.00
2018-04-12T08:13:20.006Z,23.50
2018-04-12T08:15:48.280Z,23.60
2018-04-12T08:18:16.551Z,23.10
2018-04-12T08:20:44.831Z,23.30
2018-04-12T08:23:13.089Z,23.20
2018-04-12T08:25:40.669Z,23.10
2018-04-12T08:28:08.155Z,24.20
2018-04-12T08:30:35.683Z,24.50
2018-04-12T08:33:03.233Z,24.70
2018-04-12T08:35:31.490Z,24.00
2018-04-12T08:37:58.970Z,24.00
2018-04-12T08:40:27.231Z,24.50
2018-04-12T08:42:55.486Z,24.90
2018-04-12T08:45:22.973Z,24.80
2018-04-12T08:47:51.226Z,24.20
2018-04-12T08:50:18.829Z,24.10
2018-04-12T08:52:46.376Z,24.00
2018-04-12T08:55:13.891Z,23.30
2018-04-12T08:57:41.378Z,23.30
2018-04-12T09:00:09.745Z,22.20
2018-04-12T09:02:38.131Z,22.10
2018-04-12T09:05:05.613Z,22.00
2018-04-12T09:07:33.116Z,22.00
2018-04-12T09:10:01.424Z,21.50
2018-04-12T09:12:28.978Z,21.50
2018-04-12T09:14:57.230Z,21.40
2018-04-12T09:17:25.569Z,21.20
2018-04-12T09:19:53.062Z,21.10
2018-04-12T09:22:20.563Z,21.50
2018-04-12T09:24:48.049Z,22.10
2018-04-12T09:27:15.537Z,22.30
2018-04-12T09:29:43.833Z,22.40
2018-04-12T09:32:11.334Z,22.30
2018-04-12T09:34:38.956Z,23.30
2018-04-12T09:37:06.470Z,23.40
2018-04-12T09:39:34.070Z,23.40
2018-04-12T09:42:01.558Z,22.90
2018-04-12T09:44:29.056Z,22.80
2018-04-12T09:46:57.308Z,22.70
2018-04-12T09:49:24.853Z,22.70
2018-04-12T09:51:52.346Z,22.70
2018-04-12T09:54:20.602Z,23.60
2018-04-12T09:56:48.122Z,23.60
2018-04-12T09:59:15.623Z,23.50
2018-04-12T10:01:48.767Z,23.10
2018-04-12T10:04:16.247Z,22.70
2018-04-12T10:06:50.241Z,22.70
2018-04-12T10:09:17.743Z,22.70
2018-04-12T10:11:46.012Z,22.50
2018-04-12T10:14:14.340Z,22.50
2018-04-12T10:16:41.915Z,22.50
2018-04-12T10:19:09.393Z,22.90
2018-04-12T10:21:36.905Z,22.90
2018-04-12T10:24:04.408Z,22.60
2018-04-12T10:26:31.982Z,22.40
2018-04-12T10:29:00.237Z,23.10
2018-04-12T10:31:27.730Z,23.10
2018-04-12T10:33:55.215Z,22.90
2018-04-12T10:36:22.724Z,22.90
2018-04-12T10:38:50.976Z,23.00
2018-04-12T10:41:18.476Z,23.00
2018-04-12T10:43:45.957Z,23.40
2018-04-12T10:46:13.471Z,23.40
2018-04-12T10:48:41.747Z,23.40
2018-04-12T10:51:10.024Z,23.30
2018-04-12T10:53:38.289Z,23.20
2018-04-12T10:56:06.548Z,23.40
2018-04-12T10:58:34.164Z,23.30
2018-04-12T11:01:01.735Z,23.80
2018-04-12T11:03:29.253Z,24.70
2018-04-12T11:05:56.756Z,24.80
2018-04-12T11:08:24.252Z,24.40
2018-04-12T11:10:52.522Z,24.50
2018-04-12T11:13:20.778Z,24.10
2018-04-12T11:15:48.289Z,24.10
2018-04-12T11:18:15.865Z,23.80
2018-04-12T11:20:43.364Z,24.10
2018-04-12T11:23:10.874Z,24.10
2018-04-12T11:25:38.407Z,24.00
2018-04-12T11:28:05.894Z,24.10
2018-04-12T11:30:33.411Z,23.70
2018-04-12T11:33:01.825Z,22.90
2018-04-12T11:35:29.335Z,22.90
2018-04-12T11:37:57.612Z,23.50
2018-04-12T11:40:25.886Z,23.20
2018-04-12T11:42:54.193Z,23.10
2018-04-12T11:45:21.672Z,23.10
2018-04-12T11:47:49.163Z,23.20
2018-04-12T11:50:16.658Z,23.30
2018-04-12T11:52:44.201Z,23.40
2018-04-12T11:55:11.707Z,23.20
2018-04-12T11:57:39.204Z,23.30
2018-04-12T12:00:07.502Z,24.50
2018-04-12T12:02:34.986Z,24.50
2018-04-12T12:05:02.518Z,24.90
2018-04-12T12:07:30.002Z,24.70
2018-04-12T12:09:57.532Z,25.00
2018-04-12T12:12:25.021Z,24.90
2018-04-12T12:14:52.637Z,24.70
2018-04-12T12:17:20.184Z,24.10
2018-04-12T12:19:47.672Z,23.80
2018-04-12T12:22:15.200Z,23.30
2018-04-12T12:24:43.476Z,23.50
2018-04-12T12:27:10.958Z,23.40
2018-04-12T12:29:38.493Z,23.40
2018-04-12T12:32:06.042Z,23.40
2018-04-12T12:34:35.250Z,23.60
2018-04-12T12:37:02.734Z,23.60
2018-04-12T12:39:30.244Z,23.90
2018-04-12T12:41:58.528Z,23.90
2018-04-12T12:44:26.106Z,23.90
2018-04-12T12:46:53.587Z,24.10
2018-04-12T12:49:21.099Z,23.90
2018-04-12T12:51:48.660Z,23.70
2018-04-12T12:54:16.143Z,23.80
2018-04-12T12:56:43.647Z,24.00
2018-04-12T12:59:11.226Z,23.90
2018-04-12T13:01:39.500Z,23.40
2018-04-12T13:04:07.772Z,23.30
2018-04-12T13:06:36.038Z,22.80
2018-04-12T13:09:04.304Z,22.50
2018-04-12T13:11:31.804Z,22.40
2018-04-12T13:13:59.324Z,22.60
2018-04-12T13:16:27.616Z,23.00
2018-04-12T13:18:55.899Z,23.20
2018-04-12T13:21:23.400Z,23.20
2018-04-12T13:23:50.906Z,23.20
2018-04-12T13:26:18.412Z,23.30
2018-04-12T13:28:46.010Z,23.30
2018-04-12T13:31:14.268Z,22.90
2018-04-12T13:33:41.774Z,22.90
2018-04-12T13:36:09.272Z,22.90
2018-04-12T13:38:36.796Z,23.00
2018-04-12T13:41:04.307Z,22.90
2018-04-12T13:43:32.597Z,22.50
2018-04-12T13:46:00.111Z,22.40
2018-04-12T13:48:27.586Z,22.80
2018-04-12T13:50:55.081Z,22.90
2018-04-12T13:53:22.601Z,23.00
2018-04-12T13:55:50.856Z,23.10
2018-04-12T13:58:18.372Z,23.10
2018-04-12T14:00:45.853Z,23.10
2018-04-12T14:03:13.349Z,23.10
2018-04-12T14:05:41.608Z,22.70
2018-04-12T14:08:09.115Z,22.60
2018-04-12T14:10:36.609Z,22.50
2018-04-12T14:13:04.122Z,22.60
2018-04-12T14:15:31.611Z,22.50
2018-04-12T14:17:59.098Z,22.30
2018-04-12T14:20:27.396Z,21.90
2018-04-12T14:22:54.951Z,21.90
2018-04-12T14:25:22.434Z,21.90
2018-04-12T14:27:49.952Z,22.00
2018-04-12T14:30:18.239Z,22.20
2018-04-12T14:32:45.727Z,22.10
2018-04-12T14:35:13.214Z,22.20
2018-04-12T14:37:40.808Z,22.10
2018-04-12T14:40:09.977Z,22.00
2018-04-12T14:42:37.468Z,22.00
2018-04-12T14:45:04.964Z,22.00
2018-04-12T14:47:32.470Z,22.10
2018-04-12T14:49:59.982Z,21.80
2018-04-12T14:52:27.486Z,21.90
2018-04-12T14:54:55.765Z,21.90
2018-04-12T14:57:23.271Z,21.80
2018-04-12T14:59:50.766Z,21.70
2018-04-12T15:02:19.026Z,21.60
2018-04-12T15:04:46.522Z,21.60
2018-04-12T15:07:14.019Z,21.50
2018-04-12T15:09:41.514Z,21.50
2018-04-12T15:12:09.886Z,21.40
2018-04-12T15:14:38.172Z,21.50
2018-04-12T15:17:05.716Z,21.40
2018-04-12T15:19:33.971Z,21.80
2018-04-12T15:22:01.471Z,21.80
2018-04-12T15:24:29.006Z,22.00
2018-04-12T15:26:57.311Z,21.90
2018-04-12T15:29:24.815Z,21.80
2018-04-12T15:31:52.312Z,21.80
2018-04-12T15:34:19.862Z,21.80
2018-04-12T15:36:47.419Z,21.70
2018-04-12T15:39:14.962Z,21.70
2018-04-12T15:41:42.439Z,21.80
2018-04-12T15:44:09.927Z,21.80
2018-04-12T15:46:37.451Z,21.70
2018-04-12T15:49:04.998Z,21.70
2018-04-12T15:51:33.246Z,21.50
2018-04-12T15:54:00.825Z,21.40
2018-04-12T15:56:29.098Z,21.20
2018-04-12T15:58:57.355Z,21.20
2018-04-12T16:01:24.910Z,21.20
2018-04-12T16:03:52.380Z,21.10
2018-04-12T16:06:20.694Z,21.00
2018-04-12T16:08:48.188Z,21.00
2018-04-12T16:11:15.685Z,20.80
2018-04-12T16:13:43.945Z,20.70
2018-04-12T16:16:12.207Z,20.60
2018-04-12T16:18:39.803Z,20.50
2018-04-12T16:21:07.353Z,20.50
2018-04-12T16:23:34.809Z,20.50
2018-04-12T16:26:02.306Z,20.40
2018-04-12T16:28:29.848Z,20.20
2018-04-12T16:30:57.321Z,20.30
2018-04-12T16:33:24.839Z,20.20
2018-04-12T16:35:52.390Z,20.30
2018-04-12T16:38:20.642Z,20.00
2018-04-12T16:40:48.347Z,19.90
2018-04-12T16:43:15.833Z,20.10
2018-04-12T16:45:43.437Z,19.90
2018-04-12T16:48:12.653Z,19.90
2018-04-12T16:50:40.155Z,19.90
2018-04-12T16:53:07.666Z,19.80
2018-04-12T16:55:35.180Z,19.80
2018-04-12T16:58:02.662Z,19.70
2018-04-12T17:00:31.050Z,19.50
2018-04-12T17:02:58.632Z,19.40
2018-04-12T17:05:26.154Z,19.40
2018-04-12T17:07:54.444Z,19.20
2018-04-12T17:10:21.962Z,19.10
2018-04-12T17:12:49.560Z,19.20
2018-04-12T17:15:17.061Z,19.30
2018-04-12T17:17:44.568Z,19.20
2018-04-12T17:20:12.128Z,19.20
2018-04-12T17:22:39.680Z,19.20
2018-04-12T17:25:07.169Z,19.00
2018-04-12T17:27:34.690Z,18.90
2018-04-12T17:30:02.947Z,18.90
2018-04-12T17:32:31.210Z,18.70
2018-04-12T17:34:58.723Z,18.70
2018-04-12T17:37:26.205Z,18.70
2018-04-12T17:39:53.716Z,18.60
2018-04-12T17:42:21.222Z,18.70
2018-04-12T17:44:48.706Z,18.40
2018-04-12T17:47:17.002Z,18.40
2018-04-12T17:49:44.527Z,18.40
2018-04-12T17:52:12.040Z,18.60
2018-04-12T17:54:39.522Z,18.70
2018-04-12T17:57:07.031Z,18.70
2018-04-12T17:59:34.599Z,18.60
2018-04-12T18:02:02.114Z,18.50
2018-04-12T18:04:29.623Z,18.30
2018-04-12T18:06:57.113Z,18.30
2018-04-12T18:09:24.630Z,18.20
2018-04-12T18:11:52.162Z,18.20
2018-04-12T18:14:20.427Z,18.10
2018-04-12T18:16:48.715Z,18.10
2018-04-12T18:19:16.984Z,18.20
2018-04-12T18:21:45.360Z,18.20
2018-04-12T18:24:13.756Z,18.20
2018-04-12T18:26:41.299Z,18.20
2018-04-12T18:29:08.863Z,18.20
2018-04-12T18:31:36.354Z,18.00
2018-04-12T18:34:03.851Z,17.90
2018-04-12T18:36:31.356Z,17.80
2018-04-12T18:38:58.844Z,17.70
2018-04-12T18:41:26.442Z,17.70
2018-04-12T18:43:54.699Z,17.80
2018-04-12T18:46:23.007Z,17.80
2018-04-12T18:48:50.556Z,17.80
2018-04-12T18:51:18.129Z,17.70
2018-04-12T18:53:45.658Z,17.80
2018-04-12T18:56:13.941Z,17.60
2018-04-12T18:58:42.315Z,17.30
2018-04-12T19:01:10.596Z,17.30
2018-04-12T19:03:38.156Z,17.20
2018-04-12T19:06:05.711Z,17.30
2018-04-12T19:08:33.239Z,17.20
2018-04-12T19:11:00.835Z,17.10
2018-04-12T19:13:28.382Z,17.10
2018-04-12T19:15:55.887Z,16.90
2018-04-12T19:18:23.521Z,17.00
2018-04-12T19:20:51.040Z,16.90
2018-04-12T19:23:19.317Z,17.10
2018-04-12T19:25:47.587Z,17.10
2018-04-12T19:28:15.855Z,17.00
2018-04-12T19:30:43.334Z,16.90
2018-04-12T19:33:10.844Z,16.90
2018-04-12T19:35:38.360Z,16.80
2018-04-12T19:38:05.840Z,16.70
2018-04-12T19:40:33.318Z,16.70
2018-04-12T19:43:00.815Z,16.80
2018-04-12T19:45:28.316Z,16.60
2018-04-12T19:47:55.863Z,16.40
2018-04-12T19:50:23.387Z,16.60
2018-04-12T19:52:50.900Z,16.70
2018-04-12T19:55:18.533Z,16.40
2018-04-12T19:57:46.046Z,16.50
2018-04-12T20:00:13.570Z,16.50
2018-04-12T20:02:41.084Z,16.50
2018-04-12T20:05:08.614Z,16.60
2018-04-12T20:07:36.178Z,16.70
2018-04-12T20:10:04.458Z,16.40
2018-04-12T20:12:32.844Z,16.20
2018-04-12T20:15:00.335Z,16.20
2018-04-12T20:17:27.878Z,16.30
2018-04-12T20:19:55.419Z,16.10
2018-04-12T20:22:22.897Z,16.10
2018-04-12T20:24:50.422Z,16.10
2018-04-12T20:27:18.694Z,16.20
2018-04-12T20:29:46.994Z,16.20
2018-04-12T20:32:14.522Z,16.20
2018-04-12T20:34:42.793Z,16.00
2018-04-12T20:37:11.041Z,15.90
2018-04-12T20:39:38.574Z,15.90
2018-04-12T20:42:06.098Z,15.80
2018-04-12T20:44:33.616Z,15.70
2018-04-12T20:47:01.231Z,15.60
2018-04-12T20:49:28.714Z,15.50
2018-04-12T20:51:56.221Z,15.50
2018-04-12T20:54:24.521Z,15.20
2018-04-12T20:56:52.031Z,15.10
2018-04-12T20:59:19.537Z,15.20
2018-04-12T21:01:47.027Z,15.20
2018-04-12T21:04:14.505Z,15.20
2018-04-12T21:06:42.109Z,15.10
2018-04-12T21:09:09.593Z,15.20
2018-04-12T21:11:37.094Z,15.20
2018-04-12T21:14:05.347Z,15.20
2018-04-12T21:16:32.920Z,15.10
2018-04-12T21:19:01.167Z,15.20
2018-04-12T21:21:28.759Z,15.20
2018-04-12T21:23:56.239Z,15.20
2018-04-12T21:26:23.815Z,15.20
2018-04-12T21:28:52.026Z,15.20
2018-04-12T21:31:19.514Z,15.10
2018-04-12T21:33:47.015Z,15.10
2018-04-12T21:36:14.514Z,15.00
2018-04-12T21:38:42.786Z,15.00
2018-04-12T21:41:11.072Z,15.00
2018-04-12T21:43:38.602Z,14.90
2018-04-12T21:46:06.078Z,15.00
2018-04-12T21:48:34.364Z,14.60
2018-04-12T21:51:01.851Z,14.60
2018-04-12T21:53:29.329Z,14.60
2018-04-12T21:55:56.854Z,14.50
2018-04-12T21:58:24.329Z,14.40
2018-04-12T22:00:51.822Z,14.40
2018-04-12T22:03:20.083Z,14.40
2018-04-12T22:05:47.605Z,14.30
2018-04-12T22:08:15.094Z,14.40
2018-04-12T22:10:42.704Z,14.40
2018-04-12T22:13:10.208Z,14.40
2018-04-12T22:15:37.712Z,14.40
2018-04-12T22:18:05.242Z,14.30
2018-04-12T22:20:33.511Z,14.20
2018-04-12T22:23:01.777Z,14.20
2018-04-12T22:25:29.262Z,14.10
2018-04-12T22:27:56.771Z,14.20
2018-04-12T22:30:24.376Z,14.30
2018-04-12T22:32:51.926Z,14.20
2018-04-12T22:35:20.172Z,14.10
2018-04-12T22:37:48.478Z,14.00
2018-04-12T22:40:16.730Z,14.00
2018-04-12T22:42:44.336Z,13.90
2018-04-12T22:45:11.832Z,14.00
2018-04-12T22:47:39.484Z,14.00
2018-04-12T22:50:06.975Z,14.10
2018-04-12T22:52:35.218Z,13.80
2018-04-12T22:55:02.714Z,13.80
2018-04-12T22:57:30.989Z,13.70
2018-04-12T22:59:59.262Z,13.60
2018-04-12T23:02:27.519Z,13.60
2018-04-12T23:04:55.018Z,13.60
2018-04-12T23:07:22.520Z,13.60
2018-04-12T23:09:50.006Z,13.60
2018-04-12T23:12:18.268Z,13.50
2018-04-12T23:14:46.538Z,13.40
2018-04-12T23:17:14.120Z,13.40
2018-04-12T23:19:41.644Z,13.40
2018-04-12T23:22:09.175Z,13.40
2018-04-12T23:24:36.668Z,13.50
2018-04-12T23:27:04.248Z,13.50
2018-04-12T23:29:31.927Z,13.50
2018-04-12T23:31:59.458Z,13.50
2018-04-12T23:34:27.744Z,13.60
2018-04-12T23:36:55.246Z,13.60
2018-04-12T23:39:23.725Z,13.60
2018-04-12T23:41:51.209Z,13.50
2018-04-12T23:44:19.470Z,13.60
2018-04-12T23:46:47.747Z,13.80
2018-04-12T23:49:15.240Z,13.70
2018-04-12T23:51:42.728Z,13.60
2018-04-12T23:54:10.336Z,13.60
2018-04-12T23:56:38.597Z,13.30
2018-04-12T23:59:06.085Z,13.30
